Time;durP1;ratioP1;P1;durP2;ratioP2;P2;SDS_P1;SDS_P2;PMS_P1;PMS_P2;Temp;Humidity;BMP_temperature;BMP_pressure;BME280_temperature;BME280_humidity;BME280_pressure;Samples;Min_cycle;Max_cycle;Signal;HPM_P1;HPM_P2
2023/03/05 00:01:23;;;;;;;14.90;3.13;;;;;;;4.77;100.00;102140.91;6191919;23;20174;-92
2023/03/05 00:03:53;;;;;;;11.90;3.15;;;;;;;4.80;100.00;102128.50;6191622;23;20039;-91
2023/03/05 00:06:25;;;;;;;8.88;2.53;;;;;;;4.73;100.00;102128.66;6167240;23;20013;-92
2023/03/05 00:08:52;;;;;;;18.50;3.28;;;;;;;4.62;100.00;102124.47;6167593;23;20017;-92
2023/03/05 00:11:19;;;;;;;8.23;3.83;;;;;;;4.62;100.00;102120.94;6191438;23;20017;-91
2023/03/05 00:13:45;;;;;;;16.30;2.80;;;;;;;4.64;100.00;102124.41;6192312;23;20013;-90
2023/03/05 00:16:13;;;;;;;16.95;2.95;;;;;;;4.70;100.00;102126.06;6192392;23;20103;-92
2023/03/05 00:18:39;;;;;;;9.77;2.63;;;;;;;4.83;100.00;102124.97;6193023;23;20017;-92
2023/03/05 00:21:20;;;;;;;13.52;3.08;;;;;;;4.82;100.00;102121.44;6192919;23;20027;-92
2023/03/05 00:23:46;;;;;;;13.10;3.55;;;;;;;4.67;100.00;102119.97;6192946;23;20016;-92
2023/03/05 00:26:11;;;;;;;10.32;2.65;;;;;;;4.64;100.00;102120.00;6193125;23;20433;-93
2023/03/05 00:28:38;;;;;;;13.45;4.43;;;;;;;4.64;100.00;102116.50;6193205;23;20013;-93
2023/03/05 00:31:04;;;;;;;11.93;3.03;;;;;;;4.63;100.00;102126.19;6192298;23;20345;-92
2023/03/05 00:33:30;;;;;;;6.53;3.03;;;;;;;4.73;100.00;102115.47;6168077;23;20017;-92
2023/03/05 00:35:57;;;;;;;8.95;2.50;;;;;;;4.75;100.00;102117.16;6192707;23;20031;-92
2023/03/05 00:38:23;;;;;;;15.23;2.75;;;;;;;4.81;100.00;102113.53;6167227;23;20091;-93
2023/03/05 00:40:49;;;;;;;10.48;3.40;;;;;;;4.65;100.00;102113.81;6192938;23;20008;-93
2023/03/05 00:43:15;;;;;;;13.10;3.47;;;;;;;4.71;100.00;102112.81;6167540;23;20013;-93
2023/03/05 00:45:41;;;;;;;16.30;3.53;;;;;;;4.50;100.00;102106.16;6192503;23;20051;-94
2023/03/05 00:48:06;;;;;;;15.23;3.25;;;;;;;4.49;100.00;102104.44;6168229;23;20006;-94
2023/03/05 00:50:32;;;;;;;10.07;2.53;;;;;;;4.36;100.00;102109.03;6192967;23;20017;-93
2023/03/05 00:52:58;;;;;;;15.70;2.53;;;;;;;4.41;100.00;102104.56;6194971;23;20020;-93
2023/03/05 00:55:23;;;;;;;9.38;2.78;;;;;;;4.39;100.00;102106.34;6193008;23;20025;-94
2023/03/05 00:57:49;;;;;;;8.43;3.65;;;;;;;4.27;100.00;102111.00;6192547;23;20016;-93
2023/03/05 01:00:15;;;;;;;10.63;3.22;;;;;;;4.44;100.00;102101.00;6192794;23;20012;-93
2023/03/05 01:02:41;;;;;;;14.65;2.72;;;;;;;4.59;100.00;102097.22;6167251;23;20016;-93
2023/03/05 01:05:23;;;;;;;18.58;6.43;;;;;;;4.52;100.00;102096.47;6217840;23;20039;-92
2023/03/05 01:07:52;;;;;;;16.33;3.13;;;;;;;4.57;100.00;102088.47;6217891;23;20008;-94
2023/03/05 01:10:18;;;;;;;11.75;2.40;;;;;;;4.37;100.00;102088.81;6167955;23;20008;-93
2023/03/05 01:12:44;;;;;;;13.07;3.20;;;;;;;4.39;100.00;102095.78;6192535;23;20016;-93
2023/03/05 01:15:10;;;;;;;6.07;2.40;;;;;;;4.50;100.00;102084.16;6192767;23;20499;-94
2023/03/05 01:17:36;;;;;;;15.93;3.28;;;;;;;4.37;100.00;102086.19;6192743;23;20012;-92
2023/03/05 01:20:03;;;;;;;11.38;2.92;;;;;;;4.39;100.00;102085.22;6167428;23;20437;-93
2023/03/05 01:22:28;;;;;;;9.75;3.20;;;;;;;4.30;100.00;102079.25;6217932;23;20087;-93
2023/03/05 01:24:54;;;;;;;13.93;2.83;;;;;;;4.43;100.00;102072.00;6192336;23;20012;-92
2023/03/05 01:27:20;;;;;;;9.32;2.75;;;;;;;4.43;100.00;102072.00;6217871;23;20302;-92
2023/03/05 01:29:45;;;;;;;6.35;2.10;;;;;;;4.59;100.00;102066.38;6191947;23;20052;-92
2023/03/05 01:32:11;;;;;;;8.38;2.33;;;;;;;4.56;100.00;102065.56;6166723;23;20023;-92
2023/03/05 01:34:37;;;;;;;26.15;4.18;;;;;;;4.52;100.00;102053.31;6191096;23;20016;-92
2023/03/05 01:37:02;;;;;;;10.77;3.13;;;;;;;4.36;100.00;102048.31;6215914;23;20024;-92
2023/03/05 01:39:28;;;;;;;15.88;3.92;;;;;;;4.48;100.00;102047.22;6215888;23;20429;-92
2023/03/05 01:41:53;;;;;;;7.07;2.30;;;;;;;4.53;100.00;102042.72;6166036;23;20020;-92
2023/03/05 01:44:27;;;;;;;13.75;2.85;;;;;;;4.53;100.00;102033.94;6215708;23;20051;-92
2023/03/05 01:46:53;;;;;;;22.13;3.63;;;;;;;4.60;100.00;102035.56;6166030;23;20024;-93
2023/03/05 01:49:23;;;;;;;8.73;2.33;;;;;;;4.68;100.00;102026.59;6216262;23;20341;-94
2023/03/05 01:52:18;;;;;;;13.20;2.80;;;;;;;4.37;100.00;102023.66;6191394;23;20027;-92
2023/03/05 01:54:58;;;;;;;10.15;3.05;;;;;;;4.44;100.00;102019.13;6190933;23;20091;-93
2023/03/05 01:57:29;;;;;;;16.13;3.35;;;;;;;4.41;100.00;102020.03;6191788;23;20082;-93
2023/03/05 02:00:00;;;;;;;11.93;3.47;;;;;;;4.46;100.00;102024.38;6191744;23;20035;-93
2023/03/05 02:02:26;;;;;;;19.15;4.25;;;;;;;4.59;100.00;102018.84;6167295;23;20016;-91
2023/03/05 02:04:58;;;;;;;15.35;3.97;;;;;;;4.47;100.00;102012.91;6192625;23;20524;-92
2023/03/05 02:07:24;;;;;;;11.45;4.00;;;;;;;4.55;100.00;102011.88;6191892;23;20020;-93
2023/03/05 02:09:49;;;;;;;17.67;3.15;;;;;;;4.51;100.00;102012.81;6216575;23;20015;-93
2023/03/05 02:12:15;;;;;;;16.63;2.95;;;;;;;4.25;100.00;102007.16;6186769;23;20021;-94
2023/03/05 02:14:46;;;;;;;12.10;3.05;;;;;;;4.38;100.00;102000.78;6187056;23;20145;-94
2023/03/05 02:17:12;;;;;;;12.52;3.38;;;;;;;4.37;100.00;101999.03;6163211;23;20032;-94
2023/03/05 02:19:46;;;;;;;10.68;3.20;;;;;;;4.43;100.00;101995.41;6162057;23;20051;-93
2023/03/05 02:22:17;;;;;;;19.65;6.78;;;;;;;4.47;100.00;101995.31;6161226;23;20024;-92
2023/03/05 02:24:43;;;;;;;12.25;3.40;;;;;;;4.48;100.00;101982.97;6162049;23;20021;-93
2023/03/05 02:27:09;;;;;;;14.88;3.50;;;;;;;4.57;100.00;101977.53;6162729;23;20017;-93
2023/03/05 02:29:38;;;;;;;11.88;3.53;;;;;;;4.39;100.00;101976.97;6189067;23;20005;-93
2023/03/05 02:32:04;;;;;;;11.73;3.60;;;;;;;4.54;100.00;101972.28;6189071;23;20017;-92
2023/03/05 02:34:29;;;;;;;11.50;3.60;;;;;;;4.60;100.00;101972.16;6165068;23;20079;-92
2023/03/05 02:36:55;;;;;;;20.95;3.55;;;;;;;4.62;100.00;101960.66;6188648;23;20432;-91
2023/03/05 02:39:22;;;;;;;12.07;3.28;;;;;;;4.51;100.00;101967.06;6189184;23;20009;-93
2023/03/05 02:41:47;;;;;;;11.75;3.08;;;;;;;4.61;100.00;101963.31;6188767;23;20067;-92
2023/03/05 02:44:16;;;;;;;16.98;3.20;;;;;;;4.51;100.00;101962.63;6189148;23;20446;-93
2023/03/05 02:46:42;;;;;;;14.90;4.28;;;;;;;4.72;100.00;101955.16;6188272;23;20087;-92
2023/03/05 02:49:08;;;;;;;21.83;4.03;;;;;;;4.74;100.00;101948.09;6163604;23;20411;-92
2023/03/05 02:51:33;;;;;;;8.73;3.35;;;;;;;4.71;100.00;101962.22;6189456;23;20020;-93
2023/03/05 02:53:59;;;;;;;12.45;3.60;;;;;;;4.70;100.00;101951.69;6188033;23;20438;-93
2023/03/05 02:56:26;;;;;;;14.20;4.90;;;;;;;4.48;100.00;101951.28;6163743;23;20027;-93
2023/03/05 02:58:52;;;;;;;9.25;4.22;;;;;;;4.50;100.00;101947.69;6213274;23;20013;-93
2023/03/05 03:01:18;;;;;;;20.48;4.35;;;;;;;4.66;100.00;101942.97;6162679;23;20067;-93
2023/03/05 03:03:44;;;;;;;9.45;4.90;;;;;;;4.68;100.00;101942.03;6187448;23;20075;-91
2023/03/05 03:06:09;;;;;;;12.98;3.35;;;;;;;4.57;100.00;101930.84;6188065;23;20020;-92
2023/03/05 03:08:35;;;;;;;12.30;3.42;;;;;;;4.59;100.00;101930.81;6188354;23;20426;-93
2023/03/05 03:11:09;;;;;;;14.82;3.40;;;;;;;4.57;100.00;101917.63;6163164;23;20019;-92
2023/03/05 03:13:35;;;;;;;18.63;4.25;;;;;;;4.42;100.00;101925.88;6193712;23;20021;-94
2023/03/05 03:16:03;;;;;;;18.67;4.38;;;;;;;4.41;100.00;101922.34;6220340;23;20020;-94
2023/03/05 03:18:29;;;;;;;15.13;3.05;;;;;;;4.51;100.00;101907.19;6192909;23;20009;-93
2023/03/05 03:20:55;;;;;;;15.13;3.15;;;;;;;4.53;100.00;101902.75;6218879;23;20009;-92
2023/03/05 03:23:21;;;;;;;18.58;3.85;;;;;;;4.40;100.00;101903.91;6193392;23;20026;-92
2023/03/05 03:25:46;;;;;;;6.32;2.75;;;;;;;4.49;100.00;101897.56;6192405;23;20008;-92
2023/03/05 03:28:12;;;;;;;14.75;4.32;;;;;;;4.43;100.00;101888.00;6192885;23;20429;-93
2023/03/05 03:30:38;;;;;;;8.85;2.72;;;;;;;4.48;100.00;101890.56;6192602;23;20314;-93
2023/03/05 03:33:03;;;;;;;10.40;3.17;;;;;;;4.50;100.00;101888.72;6193099;23;20016;-93
2023/03/05 03:35:29;;;;;;;14.00;4.10;;;;;;;4.47;100.00;101894.06;6192522;23;20732;-92
2023/03/05 03:37:55;;;;;;;6.97;2.72;;;;;;;4.56;100.00;101889.47;6167384;23;20012;-92
2023/03/05 03:40:21;;;;;;;9.68;3.17;;;;;;;4.83;100.00;101889.78;6217507;23;20474;-93
2023/03/05 03:42:47;;;;;;;12.15;3.05;;;;;;;4.70;100.00;101885.66;6193697;23;20357;-94
2023/03/05 03:45:13;;;;;;;10.50;3.13;;;;;;;4.75;100.00;101881.13;6167976;23;20078;-93
2023/03/05 03:47:38;;;;;;;13.60;3.42;;;;;;;4.67;100.00;101878.69;6167654;23;20023;-93
2023/03/05 03:50:04;;;;;;;16.73;3.00;;;;;;;4.71;100.00;101877.69;6192360;23;20015;-92
2023/03/05 03:52:30;;;;;;;20.83;4.13;;;;;;;4.53;100.00;101873.69;6191662;23;20012;-94
2023/03/05 03:55:00;;;;;;;15.48;3.70;;;;;;;4.55;100.00;101874.53;6216830;23;20025;-94
2023/03/05 03:57:28;;;;;;;10.73;3.08;;;;;;;4.63;100.00;101877.88;6167054;23;20020;-92
2023/03/05 03:59:54;;;;;;;14.88;3.78;;;;;;;4.57;100.00;101866.59;6165940;23;20028;-94
2023/03/05 04:02:19;;;;;;;9.38;3.42;;;;;;;4.60;100.00;101864.72;6166440;23;20341;-92
2023/03/05 04:04:48;;;;;;;13.93;3.30;;;;;;;4.36;100.00;101862.59;6167193;23;20013;-94
2023/03/05 04:07:14;;;;;;;14.15;4.25;;;;;;;4.53;100.00;101865.78;6216147;23;20727;-92
2023/03/05 04:09:40;;;;;;;18.20;3.85;;;;;;;4.40;100.00;101859.88;6190608;23;20015;-93
2023/03/05 04:12:06;;;;;;;16.05;4.20;;;;;;;4.54;100.00;101859.59;6190583;23;20096;-91
2023/03/05 04:14:31;;;;;;;15.07;3.53;;;;;;;4.50;100.00;101857.91;6192482;23;20056;-91
2023/03/05 04:16:57;;;;;;;17.35;5.15;;;;;;;4.44;100.00;101851.91;6166450;23;20013;-92
2023/03/05 04:19:23;;;;;;;17.67;4.10;;;;;;;4.42;100.00;101851.94;6191640;23;20024;-92
2023/03/05 04:21:48;;;;;;;20.75;4.68;;;;;;;4.43;100.00;101840.47;6191236;23;20322;-91
2023/03/05 04:24:14;;;;;;;15.55;4.72;;;;;;;4.40;100.00;101841.38;6216445;23;20027;-92
2023/03/05 04:26:40;;;;;;;17.02;4.45;;;;;;;4.42;100.00;101846.66;6216495;23;20433;-91
2023/03/05 04:29:06;;;;;;;14.38;5.22;;;;;;;4.25;100.00;101843.50;6191134;23;20024;-92
2023/03/05 04:31:31;;;;;;;14.90;4.90;;;;;;;4.50;100.00;101833.28;6191490;23;20063;-91
2023/03/05 04:33:58;;;;;;;19.15;6.95;;;;;;;4.41;100.00;101837.84;6191411;23;20619;-92
2023/03/05 04:36:24;;;;;;;15.05;4.95;;;;;;;4.38;100.00;101834.41;6168122;23;20027;-91
2023/03/05 04:38:49;;;;;;;22.67;6.25;;;;;;;4.44;100.00;101839.56;6191994;23;20020;-92
2023/03/05 04:41:15;;;;;;;19.70;5.20;;;;;;;4.34;100.00;101836.25;6167903;23;20016;-91
2023/03/05 04:43:41;;;;;;;21.52;5.63;;;;;;;4.45;100.00;101833.38;6191256;23;20004;-91
2023/03/05 04:46:06;;;;;;;23.17;6.47;;;;;;;4.37;100.00;101832.69;6191235;23;20021;-91
2023/03/05 04:48:32;;;;;;;18.33;6.28;;;;;;;4.33;100.00;101842.44;6191287;23;20012;-91
2023/03/05 04:50:58;;;;;;;21.27;6.13;;;;;;;4.31;100.00;101824.88;6216213;23;20009;-92
2023/03/05 04:53:24;;;;;;;22.83;6.00;;;;;;;4.31;100.00;101838.06;6218342;23;20044;-91
2023/03/05 04:55:54;;;;;;;12.90;5.32;;;;;;;4.19;100.00;101825.16;6192295;23;20019;-92
2023/03/05 04:58:20;;;;;;;14.95;5.03;;;;;;;4.36;100.00;101821.22;6191475;23;20016;-92
2023/03/05 05:00:46;;;;;;;19.15;5.78;;;;;;;4.48;100.00;101813.97;6217219;23;20023;-92
2023/03/05 05:03:11;;;;;;;20.98;5.05;;;;;;;4.39;100.00;101815.03;6193154;23;20455;-91
2023/03/05 05:05:37;;;;;;;23.80;7.45;;;;;;;4.28;100.00;101815.25;6216791;23;20425;-92
2023/03/05 05:08:03;;;;;;;19.67;5.32;;;;;;;4.43;100.00;101810.56;6191928;23;20341;-92
2023/03/05 05:10:30;;;;;;;11.10;4.70;;;;;;;4.39;100.00;101807.09;6165930;23;20491;-92
2023/03/05 05:12:56;;;;;;;15.25;4.70;;;;;;;4.26;100.00;101810.91;6165858;23;20443;-91
2023/03/05 05:15:22;;;;;;;16.92;5.28;;;;;;;4.33;100.00;101808.13;6166754;23;20036;-92
2023/03/05 05:17:48;;;;;;;17.58;5.25;;;;;;;4.40;100.00;101807.06;6166664;23;20082;-93
2023/03/05 05:20:15;;;;;;;27.83;7.22;;;;;;;4.45;100.00;101804.31;6190810;23;20094;-92
2023/03/05 05:22:41;;;;;;;22.23;5.43;;;;;;;4.36;100.00;101809.81;6190947;23;20012;-92
2023/03/05 05:25:07;;;;;;;16.42;5.03;;;;;;;4.43;100.00;101805.28;6166945;23;20012;-92
2023/03/05 05:27:33;;;;;;;14.07;4.90;;;;;;;4.30;100.00;101800.25;6190954;23;20455;-91
2023/03/05 05:29:59;;;;;;;13.65;4.63;;;;;;;4.36;100.00;101800.09;6190943;23;20017;-92
2023/03/05 05:32:25;;;;;;;13.85;4.60;;;;;;;4.31;100.00;101796.69;6191079;23;20013;-93
2023/03/05 05:34:55;;;;;;;16.95;4.38;;;;;;;4.36;100.00;101802.75;6190822;23;20023;-91
2023/03/05 05:37:22;;;;;;;14.57;5.28;;;;;;;4.26;100.00;101788.00;6166611;23;20004;-92
2023/03/05 05:39:49;;;;;;;18.73;5.60;;;;;;;4.31;100.00;101793.19;6165378;23;20036;-92
2023/03/05 05:42:23;;;;;;;15.13;4.40;;;;;;;4.38;100.00;101797.44;6165980;23;20149;-92
2023/03/05 05:44:49;;;;;;;22.33;4.32;;;;;;;4.33;100.00;101800.19;6166004;23;20464;-92
2023/03/05 05:47:16;;;;;;;16.95;4.88;;;;;;;4.31;100.00;101791.41;6165865;23;20088;-91
2023/03/05 05:49:42;;;;;;;16.52;4.43;;;;;;;4.33;100.00;101794.91;6191243;23;20051;-91
2023/03/05 05:52:08;;;;;;;15.35;4.28;;;;;;;4.35;100.00;101789.59;6191192;23;20024;-92
2023/03/05 05:54:35;;;;;;;22.02;3.70;;;;;;;4.41;100.00;101779.75;6189467;23;20044;-91
2023/03/05 05:57:01;;;;;;;10.73;3.83;;;;;;;4.49;100.00;101782.22;6165151;23;20083;-92
2023/03/05 05:59:27;;;;;;;18.15;4.30;;;;;;;4.35;100.00;101785.16;6164474;23;20569;-91
2023/03/05 06:01:53;;;;;;;14.13;4.03;;;;;;;4.50;100.00;101777.81;6190941;23;20020;-91
2023/03/05 06:04:18;;;;;;;16.05;5.22;;;;;;;4.37;100.00;101775.47;6216970;23;20013;-91
2023/03/05 06:06:44;;;;;;;12.52;4.10;;;;;;;4.39;100.00;101768.38;6216430;23;20005;-91
2023/03/05 06:09:09;;;;;;;13.50;4.22;;;;;;;4.44;100.00;101778.81;6218895;23;20008;-93
2023/03/05 06:11:36;;;;;;;11.52;4.00;;;;;;;4.45;100.00;101771.75;6191586;23;20021;-94
2023/03/05 06:14:02;;;;;;;13.68;5.13;;;;;;;4.43;100.00;101765.66;6192324;23;20016;-94
2023/03/05 06:16:29;;;;;;;14.93;3.95;;;;;;;4.29;100.00;101779.16;6205610;23;20063;-94
2023/03/05 06:18:55;;;;;;;12.75;4.38;;;;;;;4.52;100.00;101782.16;6191436;23;20025;-94
2023/03/05 06:21:21;;;;;;;13.43;4.72;;;;;;;4.40;100.00;101778.00;6211018;23;20008;-91
2023/03/05 06:23:48;;;;;;;11.43;3.50;;;;;;;4.31;100.00;101775.56;6161426;23;20020;-91
2023/03/05 06:26:16;;;;;;;12.80;4.32;;;;;;;4.22;100.00;101774.91;6164371;23;20072;-93
2023/03/05 06:28:42;;;;;;;18.77;4.25;;;;;;;4.31;100.00;101783.50;6188142;23;20016;-93
2023/03/05 06:31:12;;;;;;;7.38;3.22;;;;;;;4.41;100.00;101777.09;6165902;23;20062;-93
2023/03/05 06:33:38;;;;;;;16.48;4.22;;;;;;;4.42;100.00;101780.66;6167610;23;20024;-93
2023/03/05 06:36:10;;;;;;;20.45;3.50;;;;;;;4.43;100.00;101778.88;6168689;23;20016;-93
2023/03/05 06:38:36;;;;;;;16.63;4.45;;;;;;;4.53;100.00;101775.97;6193193;23;20099;-93
2023/03/05 06:41:04;;;;;;;15.05;3.60;;;;;;;4.53;100.00;101773.34;6166253;23;20020;-91
2023/03/05 06:43:34;;;;;;;14.32;3.45;;;;;;;4.64;100.00;101770.44;6189612;23;20024;-92
2023/03/05 06:46:02;;;;;;;9.55;2.67;;;;;;;4.41;100.00;101771.81;6218392;23;20100;-92
2023/03/05 06:48:28;;;;;;;11.68;3.47;;;;;;;4.52;100.00;101765.44;6167896;23;20004;-91
2023/03/05 06:50:53;;;;;;;11.40;2.83;;;;;;;4.62;100.00;101767.84;6193059;23;20437;-93
2023/03/05 06:53:19;;;;;;;9.13;3.03;;;;;;;4.65;100.00;101777.44;6193013;23;20017;-93
2023/03/05 06:55:44;;;;;;;9.38;3.22;;;;;;;4.88;100.00;101768.97;6190923;23;20020;-94
2023/03/05 06:58:10;;;;;;;9.85;2.92;;;;;;;4.95;100.00;101754.69;6192074;23;20013;-93
2023/03/05 07:00:35;;;;;;;13.80;3.60;;;;;;;4.82;100.00;101762.06;6191997;23;20020;-93
2023/03/05 07:03:01;;;;;;;16.42;3.00;;;;;;;4.93;100.00;101767.94;6169724;23;20012;-93
2023/03/05 07:05:27;;;;;;;4.53;2.92;;;;;;;5.05;100.00;101764.13;6192731;23;20333;-92
2023/03/05 07:07:52;;;;;;;11.07;3.00;;;;;;;5.15;100.00;101760.34;6185681;23;20035;-91
2023/03/05 07:10:18;;;;;;;13.18;3.20;;;;;;;5.09;100.00;101764.91;6218253;23;20016;-91
2023/03/05 07:12:43;;;;;;;9.48;3.55;;;;;;;5.21;100.00;101764.59;6187853;23;20052;-91
2023/03/05 07:15:09;;;;;;;10.52;3.30;;;;;;;5.13;100.00;101758.66;6187411;23;20017;-94
2023/03/05 07:17:35;;;;;;;8.55;3.30;;;;;;;5.28;100.00;101760.88;6187857;23;20020;-94
2023/03/05 07:20:00;;;;;;;7.18;2.78;;;;;;;5.24;100.00;101761.00;6162362;23;20326;-94
2023/03/05 07:22:26;;;;;;;9.77;2.83;;;;;;;5.14;100.00;101757.75;6187212;23;20016;-93
2023/03/05 07:24:52;;;;;;;9.75;3.75;;;;;;;5.17;100.00;101755.00;6162801;23;20453;-92
2023/03/05 07:27:18;;;;;;;7.20;2.70;;;;;;;4.97;100.00;101754.63;6162816;23;20021;-93
2023/03/05 07:29:43;;;;;;;11.90;3.25;;;;;;;5.05;100.00;101752.69;6162546;23;20361;-92
2023/03/05 07:32:09;;;;;;;4.95;3.03;;;;;;;5.08;100.00;101750.84;6186202;23;20013;-93
2023/03/05 07:34:37;;;;;;;16.40;3.05;;;;;;;5.24;100.00;101753.94;6211935;23;20349;-92
2023/03/05 07:37:04;;;;;;;9.77;3.25;;;;;;;5.18;100.00;101744.41;6162492;23;20013;-93
2023/03/05 07:39:29;;;;;;;10.60;3.50;;;;;;;5.10;100.00;101756.06;6162628;23;20017;-92
2023/03/05 07:42:17;;;;;;;6.30;2.67;;;;;;;5.41;100.00;101751.69;6165754;23;20091;-91
2023/03/05 07:44:53;;;;;;;11.93;3.10;;;;;;;5.51;100.00;101741.72;6166840;23;20213;-92
2023/03/05 07:47:19;;;;;;;7.53;4.57;;;;;;;5.61;100.00;101753.78;6187345;23;20056;-92
2023/03/05 07:49:45;;;;;;;8.63;2.72;;;;;;;5.99;100.00;101748.34;6211927;23;20099;-91
2023/03/05 07:52:11;;;;;;;10.90;3.28;;;;;;;6.12;100.00;101747.91;6161866;23;20009;-92
2023/03/05 07:54:40;;;;;;;10.75;3.03;;;;;;;5.96;100.00;101750.16;6162838;23;20016;-93
2023/03/05 07:57:07;;;;;;;9.30;4.05;;;;;;;6.04;100.00;101743.78;6163279;23;20009;-94
2023/03/05 07:59:34;;;;;;;12.30;3.05;;;;;;;6.13;100.00;101744.38;6163329;23;20401;-93
2023/03/05 08:01:59;;;;;;;9.15;3.67;;;;;;;6.25;100.00;101737.81;6163018;23;20009;-93
2023/03/05 08:04:25;;;;;;;12.55;3.05;;;;;;;5.86;100.00;101742.50;6188070;23;20043;-91
2023/03/05 08:06:52;;;;;;;7.88;3.13;;;;;;;5.84;100.00;101742.56;6162993;23;20095;-93
2023/03/05 08:09:18;;;;;;;13.20;4.53;;;;;;;5.86;100.00;101740.72;6163268;23;20013;-93
2023/03/05 08:11:44;;;;;;;11.82;3.65;;;;;;;5.85;100.00;101738.13;6212247;23;20152;-92
2023/03/05 08:14:11;;;;;;;10.20;2.95;;;;;;;6.03;100.00;101742.06;6160754;23;20017;-91
2023/03/05 08:16:38;;;;;;;6.82;2.65;;;;;;;6.20;100.00;101723.88;6159490;23;20013;-91
2023/03/05 08:19:04;;;;;;;14.73;3.35;;;;;;;6.14;100.00;101742.59;6159624;23;20027;-91
2023/03/05 08:21:34;;;;;;;13.00;3.30;;;;;;;6.26;100.00;101734.25;6158053;23;20437;-90
2023/03/05 08:24:06;;;;;;;9.20;2.90;;;;;;;5.87;100.00;101731.91;6157849;23;20064;-91
2023/03/05 08:26:36;;;;;;;8.30;3.00;;;;;;;5.74;100.00;101735.81;6209546;23;20013;-91
2023/03/05 08:29:02;;;;;;;7.10;2.80;;;;;;;6.32;100.00;101719.94;6159602;23;20024;-91
2023/03/05 08:31:31;;;;;;;12.23;2.67;;;;;;;6.28;100.00;101719.22;6159430;23;20059;-90
2023/03/05 08:33:59;;;;;;;14.43;2.70;;;;;;;6.29;100.00;101723.59;6155960;23;20099;-91
2023/03/05 08:36:25;;;;;;;8.45;2.22;;;;;;;6.18;100.00;101723.91;6157621;23;20009;-90
2023/03/05 08:38:50;;;;;;;9.20;2.30;;;;;;;6.23;100.00;101719.34;6155257;23;20337;-90
2023/03/05 08:41:17;;;;;;;4.38;2.13;;;;;;;6.43;100.00;101716.06;6155494;23;20414;-91
2023/03/05 08:43:43;;;;;;;9.30;2.80;;;;;;;6.64;100.00;101711.00;6206406;23;20013;-90
2023/03/05 08:46:13;;;;;;;10.50;2.50;;;;;;;6.56;100.00;101710.34;6150163;23;20418;-89
2023/03/05 08:48:39;;;;;;;6.78;1.90;;;;;;;6.77;100.00;101716.72;6171785;23;20110;-91
2023/03/05 08:51:11;;;;;;;5.03;1.90;;;;;;;6.27;100.00;101714.78;6171150;23;20016;-88
2023/03/05 08:53:38;;;;;;;6.65;2.22;;;;;;;6.31;100.00;101711.16;6170696;23;20143;-88
2023/03/05 08:56:04;;;;;;;5.82;1.90;;;;;;;6.42;100.00;101708.16;6170592;23;20103;-87
2023/03/05 08:58:30;;;;;;;2.05;1.60;;;;;;;6.53;100.00;101705.19;6149818;23;20028;-88
2023/03/05 09:00:56;;;;;;;20.00;2.72;;;;;;;6.72;100.00;101698.31;6177952;23;20516;-88
2023/03/05 09:03:24;;;;;;;6.07;1.60;;;;;;;6.71;100.00;101701.91;6153542;23;20159;-88
2023/03/05 09:05:50;;;;;;;4.70;1.77;;;;;;;6.88;100.00;101694.25;6154632;23;20047;-89
2023/03/05 09:08:17;;;;;;;7.20;1.60;;;;;;;6.97;100.00;101690.41;6152843;23;20017;-88
2023/03/05 09:10:45;;;;;;;3.20;1.50;;;;;;;7.20;100.00;101686.97;6180332;23;20032;-88
2023/03/05 09:13:11;;;;;;;3.60;1.65;;;;;;;7.86;100.00;101682.72;6181219;23;20049;-89
2023/03/05 09:15:40;;;;;;;5.35;1.85;;;;;;;7.38;100.00;101686.31;6181922;23;20017;-88
2023/03/05 09:18:07;;;;;;;4.22;1.50;;;;;;;6.73;100.00;101682.41;6177827;23;20032;-88
2023/03/05 09:20:34;;;;;;;4.50;2.00;;;;;;;7.01;100.00;101682.28;6174331;23;20017;-88
2023/03/05 09:23:00;;;;;;;5.50;1.75;;;;;;;7.79;100.00;101667.94;6196079;23;20035;-87
2023/03/05 09:25:27;;;;;;;7.65;2.00;;;;;;;8.34;98.21;101663.13;6171616;23;20037;-87
2023/03/05 09:27:53;;;;;;;8.23;1.67;;;;;;;8.26;95.19;101657.22;6197757;23;20017;-88
2023/03/05 09:30:20;;;;;;;3.85;1.77;;;;;;;8.54;92.82;101662.31;6171069;23;20008;-88
2023/03/05 09:32:46;;;;;;;5.55;1.65;;;;;;;7.98;95.23;101661.00;6197887;23;20009;-88
2023/03/05 09:35:12;;;;;;;7.10;2.60;;;;;;;8.15;93.83;101654.16;6151682;23;20028;-88
2023/03/05 09:37:39;;;;;;;4.97;1.70;;;;;;;8.04;91.71;101655.44;6177609;23;20012;-89
2023/03/05 09:40:05;;;;;;;4.18;1.73;;;;;;;8.16;93.48;101661.19;6180087;23;20017;-89
2023/03/05 09:42:53;;;;;;;4.28;1.33;;;;;;;7.95;93.09;101658.47;6201018;23;20059;-88
2023/03/05 09:45:42;;;;;;;2.83;1.40;;;;;;;7.95;90.65;101649.63;6180736;23;20023;-89
2023/03/05 09:48:25;;;;;;;6.15;1.60;;;;;;;8.11;89.95;101649.88;6170719;23;20052;-89
2023/03/05 09:51:00;;;;;;;3.45;1.58;;;;;;;8.06;92.01;101652.72;6179008;23;20032;-88
2023/03/05 09:53:52;;;;;;;6.15;1.90;;;;;;;7.98;90.79;101649.50;6179673;23;20009;-88
2023/03/05 09:56:55;;;;;;;2.63;1.35;;;;;;;8.08;91.35;101650.84;6204134;23;20072;-88
2023/03/05 09:59:30;;;;;;;4.80;1.30;;;;;;;8.00;91.43;101656.50;6153246;23;20021;-87
2023/03/05 10:02:11;;;;;;;8.27;1.80;;;;;;;8.19;90.68;101642.47;6182522;23;20013;-88
2023/03/05 10:04:43;;;;;;;10.23;2.53;;;;;;;8.28;90.86;101642.06;6199692;23;20021;-88
2023/03/05 10:07:37;;;;;;;7.65;1.92;;;;;;;8.40;87.71;101635.44;6154022;23;20041;-88
2023/03/05 10:10:23;;;;;;;6.22;2.47;;;;;;;8.46;86.00;101635.19;6160291;23;20139;-89
2023/03/05 10:13:01;;;;;;;4.07;1.80;;;;;;;8.03;87.17;101632.47;6180239;23;20131;-88
2023/03/05 10:15:40;;;;;;;6.57;1.38;;;;;;;8.38;86.68;101627.50;6183191;23;20099;-88
2023/03/05 10:18:52;;;;;;;6.82;1.50;;;;;;;8.23;85.62;101618.38;6209728;23;20009;-89
2023/03/05 10:21:39;;;;;;;7.03;1.38;;;;;;;8.52;84.01;101622.50;6212082;23;20099;-89
2023/03/05 10:24:39;;;;;;;5.65;1.40;;;;;;;8.44;83.38;101623.78;6182520;23;20009;-87
2023/03/05 10:27:19;;;;;;;6.95;1.60;;;;;;;8.68;86.38;101617.38;6156772;23;20036;-87
2023/03/05 10:30:12;;;;;;;3.83;1.30;;;;;;;9.07;81.69;101608.59;6185668;23;20068;-87
2023/03/05 10:33:02;;;;;;;2.03;1.40;;;;;;;8.96;79.31;101606.41;6185226;23;20048;-89
2023/03/05 10:36:06;;;;;;;2.33;1.40;;;;;;;8.62;80.28;101603.50;6186321;23;20120;-90
2023/03/05 10:38:58;;;;;;;7.45;1.52;;;;;;;8.51;82.18;101598.66;6193284;23;20024;-89
2023/03/05 10:41:52;;;;;;;9.10;1.70;;;;;;;8.88;82.16;101605.88;6191007;23;20063;-87
2023/03/05 10:44:31;;;;;;;4.97;0.98;;;;;;;8.77;76.63;101598.38;6186564;23;20017;-90
2023/03/05 10:47:00;;;;;;;4.13;1.20;;;;;;;8.44;78.21;101598.06;6188767;23;20012;-89
2023/03/05 10:49:34;;;;;;;6.15;1.20;;;;;;;8.76;77.54;101598.44;6163296;23;20017;-89
2023/03/05 10:52:21;;;;;;;4.38;1.33;;;;;;;8.54;77.81;101588.75;6188162;23;20020;-89
2023/03/05 10:54:49;;;;;;;6.50;1.67;;;;;;;8.52;79.53;101590.59;6162659;23;20047;-88
2023/03/05 10:57:24;;;;;;;4.05;1.40;;;;;;;9.07;78.60;101587.31;6186261;23;20442;-88
2023/03/05 11:00:16;;;;;;;1.45;1.05;;;;;;;8.87;77.64;101582.88;6186166;23;20021;-88
2023/03/05 11:03:04;;;;;;;3.17;1.40;;;;;;;8.80;81.07;101576.97;6210497;23;20021;-88
2023/03/05 11:05:48;;;;;;;4.90;2.00;;;;;;;9.20;79.83;101574.31;6188064;23;20036;-89
2023/03/05 11:08:31;;;;;;;4.43;2.22;;;;;;;9.20;78.35;101566.34;6187628;23;20016;-89
2023/03/05 11:11:17;;;;;;;6.00;1.90;;;;;;;9.13;75.36;101565.75;6188117;23;20031;-89
2023/03/05 11:13:54;;;;;;;7.00;1.60;;;;;;;9.06;77.59;101574.94;6136080;23;20021;-88
2023/03/05 11:16:30;;;;;;;5.10;1.48;;;;;;;9.12;76.10;101560.50;6162009;23;20010;-89
2023/03/05 11:19:21;;;;;;;6.07;1.83;;;;;;;9.38;74.51;101549.50;6137950;23;20014;-89
2023/03/05 11:22:15;;;;;;;3.25;1.40;;;;;;;9.35;75.36;101549.66;6161682;23;20454;-88
2023/03/05 11:24:44;;;;;;;8.55;3.03;;;;;;;9.15;75.64;101547.94;6159908;23;20400;-89
2023/03/05 11:27:50;;;;;;;6.72;1.70;;;;;;;9.20;75.51;101543.25;6134146;23;20073;-89
2023/03/05 11:30:26;;;;;;;2.90;1.77;;;;;;;9.55;75.94;101543.41;6110925;23;20048;-89
2023/03/05 11:33:16;;;;;;;5.30;2.17;;;;;;;9.70;76.36;101532.00;6185234;23;20018;-88